Time;durP1;ratioP1;P1;durP2;ratioP2;P2;SDS_P1;SDS_P2;PMS_P1;PMS_P2;Temp;Humidity;BMP_temperature;BMP_pressure;BME280_temperature;BME280_humidity;BME280_pressure;Samples;Min_cycle;Max_cycle;Signal;HPM_P1;HPM_P2
2023/03/10 00:00:37;;;;;;;1.52;0.47;;;15.70;61.40;;;;;;2284880;56;21507;-71
2023/03/10 00:03:03;;;;;;;1.48;0.40;;;15.70;61.30;;;;;;2285526;56;21745;-71
2023/03/10 00:05:30;;;;;;;3.00;0.68;;;15.70;61.40;;;;;;2284758;56;20967;-71
2023/03/10 00:07:56;;;;;;;2.17;0.60;;;15.70;61.50;;;;;;2285486;56;20995;-72
2023/03/10 00:10:22;;;;;;;2.58;0.70;;;15.60;61.50;;;;;;2284516;56;21000;-71
2023/03/10 00:12:49;;;;;;;1.62;0.55;;;15.60;61.60;;;;;;2285354;56;21007;-72
2023/03/10 00:15:15;;;;;;;2.92;0.68;;;15.60;61.70;;;;;;2361453;55;20951;-70
2023/03/10 00:17:41;;;;;;;1.25;0.45;;;15.60;61.70;;;;;;2316064;54;20919;-72
2023/03/10 00:20:10;;;;;;;1.30;0.40;;;15.60;61.70;;;;;;2286097;55;20938;-72
2023/03/10 00:22:40;;;;;;;3.87;0.80;;;15.60;61.70;;;;;;2285669;55;21488;-71
2023/03/10 00:25:07;;;;;;;2.08;0.75;;;15.60;61.60;;;;;;2285377;55;20959;-72
2023/03/10 00:27:33;;;;;;;2.12;0.70;;;15.50;61.70;;;;;;2284741;56;21089;-71
2023/03/10 00:30:00;;;;;;;4.15;0.77;;;15.50;61.70;;;;;;2286995;54;21023;-72
2023/03/10 00:32:26;;;;;;;3.90;1.00;;;15.50;61.80;;;;;;2437377;54;20977;-70
2023/03/10 00:34:52;;;;;;;2.67;0.80;;;15.50;61.90;;;;;;2285513;56;21701;-71
2023/03/10 00:37:18;;;;;;;2.62;0.80;;;15.50;61.80;;;;;;2285017;55;20986;-71
2023/03/10 00:39:48;;;;;;;2.60;0.80;;;15.50;61.80;;;;;;2285525;55;21008;-71
2023/03/10 00:42:15;;;;;;;2.45;0.70;;;15.50;61.70;;;;;;2284519;55;20967;-71
2023/03/10 00:44:41;;;;;;;3.85;0.88;;;15.40;61.60;;;;;;2317062;55;21323;-71
2023/03/10 00:47:07;;;;;;;3.67;0.82;;;15.40;61.40;;;;;;2285182;55;21318;-72
2023/03/10 00:49:33;;;;;;;3.08;0.60;;;15.40;61.40;;;;;;2285040;56;20912;-72
2023/03/10 00:52:00;;;;;;;2.20;0.60;;;15.40;61.50;;;;;;2355112;54;20947;-70
2023/03/10 00:54:26;;;;;;;1.45;0.57;;;15.30;61.40;;;;;;2292969;54;20990;-71
2023/03/10 00:56:52;;;;;;;2.12;0.70;;;15.30;61.40;;;;;;2290607;54;21820;-71
2023/03/10 00:59:18;;;;;;;1.45;0.70;;;15.30;61.40;;;;;;2284650;56;21045;-71
2023/03/10 01:01:45;;;;;;;2.60;0.60;;;15.20;61.30;;;;;;2285441;56;21013;-71
2023/03/10 01:04:12;;;;;;;2.78;0.60;;;15.20;61.40;;;;;;2285218;56;20962;-70
2023/03/10 01:06:39;;;;;;;2.70;0.73;;;15.20;61.50;;;;;;2285286;56;21050;-70
2023/03/10 01:09:05;;;;;;;3.37;0.70;;;15.20;61.50;;;;;;2285341;56;21562;-71
2023/03/10 01:11:32;;;;;;;2.65;0.80;;;15.20;61.60;;;;;;2285450;55;20982;-71
2023/03/10 01:14:00;;;;;;;2.17;0.70;;;15.10;61.60;;;;;;2285838;55;20974;-70
2023/03/10 01:16:26;;;;;;;1.05;0.40;;;15.10;61.70;;;;;;2355807;54;21002;-71
2023/03/10 01:18:52;;;;;;;2.05;0.50;;;15.10;61.80;;;;;;2397314;54;21385;-70
2023/03/10 01:21:23;;;;;;;1.65;0.50;;;15.10;61.90;;;;;;2284518;56;20968;-72
2023/03/10 01:23:50;;;;;;;2.17;0.60;;;15.10;62.00;;;;;;2284876;56;21284;-70
2023/03/10 01:26:19;;;;;;;1.95;0.60;;;15.10;62.20;;;;;;2290160;55;21277;-70
2023/03/10 01:28:46;;;;;;;1.95;0.70;;;15.00;62.00;;;;;;2306999;56;21028;-72
2023/03/10 01:31:12;;;;;;;2.10;0.73;;;15.00;62.10;;;;;;2305039;56;21037;-71
2023/03/10 01:33:39;;;;;;;2.20;0.65;;;15.00;62.20;;;;;;2545247;54;21485;-71
2023/03/10 01:36:16;;;;;;;1.58;0.60;;;15.00;62.20;;;;;;2299487;55;21045;-71
2023/03/10 01:38:43;;;;;;;2.10;0.60;;;15.00;62.00;;;;;;2296719;55;20966;-71
2023/03/10 01:41:09;;;;;;;1.70;0.60;;;15.00;62.10;;;;;;2306222;55;21029;-72
2023/03/10 01:43:39;;;;;;;3.37;0.80;;;15.00;62.30;;;;;;2306206;55;21053;-71
2023/03/10 01:49:38;;;;;;;1.92;0.65;;;14.90;62.30;;;;;;2307002;55;20974;-70
2023/03/10 01:52:15;;;;;;;2.53;0.70;;;15.00;61.60;;;;;;2422421;54;20981;-71
2023/03/10 01:55:06;;;;;;;1.75;0.50;;;15.00;62.40;;;;;;2306621;56;21001;-71
2023/03/10 01:57:35;;;;;;;1.65;0.65;;;14.90;62.10;;;;;;2306671;56;21350;-71
2023/03/10 02:00:01;;;;;;;2.12;0.70;;;14.90;62.80;;;;;;2307365;56;21449;-70
2023/03/10 02:02:28;;;;;;;1.62;0.50;;;14.90;62.90;;;;;;2306534;55;21429;-71
2023/03/10 02:04:55;;;;;;;1.58;0.60;;;14.90;63.00;;;;;;2307099;55;20981;-71
2023/03/10 02:07:24;;;;;;;1.35;0.70;;;14.90;63.20;;;;;;2306287;55;21414;-70
2023/03/10 02:09:56;;;;;;;1.50;0.60;;;14.90;63.30;;;;;;2307182;56;20976;-70
2023/03/10 02:12:22;;;;;;;1.37;0.55;;;14.90;63.20;;;;;;2306832;55;20941;-71
2023/03/10 02:14:48;;;;;;;2.22;0.60;;;14.80;63.30;;;;;;2307150;56;21387;-71
2023/03/10 02:17:16;;;;;;;1.80;0.73;;;14.80;63.40;;;;;;2307089;56;21450;-70
2023/03/10 02:21:41;;;;;;;1.85;0.70;;;14.80;63.40;;;;;;2486264;54;20949;-70
2023/03/10 02:25:12;;;;;;;2.03;0.55;;;14.80;62.50;;;;;;2307384;56;20961;-70
2023/03/10 02:27:38;;;;;;;1.58;0.52;;;14.80;62.90;;;;;;2262401;56;20940;-70
2023/03/10 02:30:07;;;;;;;1.70;0.57;;;14.80;63.50;;;;;;2391853;55;20995;-70
2023/03/10 02:32:36;;;;;;;2.58;0.68;;;14.80;63.60;;;;;;2384254;55;21418;-72
2023/03/10 02:35:03;;;;;;;2.33;0.50;;;14.70;63.60;;;;;;2284024;56;20900;-71
2023/03/10 02:37:30;;;;;;;2.60;0.73;;;14.80;63.80;;;;;;2283625;56;20923;-70
2023/03/10 02:39:57;;;;;;;2.95;0.80;;;14.70;63.80;;;;;;2289293;55;21011;-71
2023/03/10 02:42:29;;;;;;;2.92;0.60;;;14.70;63.80;;;;;;2282813;56;20943;-71
2023/03/10 02:44:55;;;;;;;2.33;0.68;;;14.70;63.70;;;;;;2299124;55;21102;-72
2023/03/10 02:47:22;;;;;;;4.32;0.60;;;14.70;63.90;;;;;;2292805;55;21263;-72
2023/03/10 02:49:48;;;;;;;1.73;0.60;;;14.70;63.90;;;;;;2283997;55;21373;-70
2023/03/10 02:52:38;;;;;;;2.42;0.60;;;14.70;64.00;;;;;;2455014;55;20955;-71
2023/03/10 02:55:05;;;;;;;2.42;0.57;;;14.80;63.50;;;;;;2373545;55;20991;-71
2023/03/10 02:57:32;;;;;;;1.75;0.50;;;14.70;64.10;;;;;;2283503;56;21052;-71
2023/03/10 02:59:58;;;;;;;1.67;0.60;;;14.80;64.20;;;;;;2283667;56;20911;-71
2023/03/10 03:02:24;;;;;;;2.00;0.68;;;14.80;64.30;;;;;;2283276;55;20963;-72
2023/03/10 03:04:50;;;;;;;1.70;0.73;;;14.80;64.30;;;;;;2303462;55;21554;-71
2023/03/10 03:07:17;;;;;;;3.33;0.77;;;14.80;64.40;;;;;;2279091;56;21030;-72
2023/03/10 03:09:43;;;;;;;2.87;0.70;;;14.80;64.50;;;;;;2354133;55;21380;-72
2023/03/10 03:12:09;;;;;;;2.00;0.62;;;14.80;64.60;;;;;;2284157;55;20931;-71
2023/03/10 03:14:35;;;;;;;4.87;0.70;;;14.80;64.60;;;;;;2282511;55;20915;-72
2023/03/10 03:17:02;;;;;;;1.77;0.60;;;14.80;64.60;;;;;;2284111;56;21272;-71
2023/03/10 03:19:28;;;;;;;0.98;0.40;;;14.80;64.60;;;;;;2283648;56;20931;-72
2023/03/10 03:21:55;;;;;;;1.40;0.57;;;14.80;64.60;;;;;;2283970;56;21388;-71
2023/03/10 03:24:22;;;;;;;4.12;0.70;;;14.80;64.60;;;;;;2283782;56;21030;-71
2023/03/10 03:26:48;;;;;;;2.50;0.50;;;14.80;64.60;;;;;;2283688;55;20923;-70
2023/03/10 03:29:14;;;;;;;2.17;0.60;;;14.70;64.50;;;;;;2283813;56;20971;-71
2023/03/10 03:31:40;;;;;;;2.72;0.93;;;14.70;64.60;;;;;;2284253;56;20939;-70
2023/03/10 03:34:07;;;;;;;2.17;0.75;;;14.70;64.60;;;;;;2285157;56;20915;-71
2023/03/10 03:36:33;;;;;;;2.33;0.77;;;14.70;64.70;;;;;;2284299;56;21361;-71
2023/03/10 03:38:59;;;;;;;4.10;0.75;;;14.70;64.80;;;;;;2285334;56;20950;-71
2023/03/10 03:41:25;;;;;;;1.90;0.65;;;14.70;64.90;;;;;;2284345;55;21338;-71
2023/03/10 03:43:52;;;;;;;1.73;0.90;;;14.70;64.90;;;;;;2285085;56;20959;-73
2023/03/10 03:46:18;;;;;;;2.65;0.68;;;14.70;65.80;;;;;;2284715;56;21000;-72
2023/03/10 03:48:44;;;;;;;3.15;0.93;;;14.70;65.10;;;;;;2295291;55;20943;-72
2023/03/10 03:51:10;;;;;;;2.60;0.70;;;14.60;65.00;;;;;;2313608;55;20987;-71
2023/03/10 03:53:37;;;;;;;2.92;0.70;;;14.60;65.00;;;;;;2284699;56;21428;-72
2023/03/10 03:56:03;;;;;;;1.55;0.60;;;14.60;65.10;;;;;;2285144;56;20943;-71
2023/03/10 03:58:30;;;;;;;2.85;0.70;;;14.60;65.10;;;;;;2518458;55;20915;-71
2023/03/10 04:00:56;;;;;;;1.95;0.52;;;14.60;65.20;;;;;;2285010;56;20958;-71
2023/03/10 04:03:22;;;;;;;1.37;0.50;;;14.60;65.10;;;;;;2284875;55;20998;-72
2023/03/10 04:05:48;;;;;;;3.28;0.68;;;14.60;65.10;;;;;;2284844;56;20943;-72
2023/03/10 04:08:15;;;;;;;3.45;0.80;;;14.60;65.10;;;;;;2368391;55;21659;-71
2023/03/10 04:10:41;;;;;;;1.67;0.50;;;14.60;65.20;;;;;;2284900;55;21423;-71
2023/03/10 04:13:07;;;;;;;3.97;0.90;;;14.60;65.20;;;;;;2283868;56;21388;-72
2023/03/10 04:15:34;;;;;;;3.95;1.00;;;14.60;65.20;;;;;;2338185;55;21645;-72
2023/03/10 04:18:00;;;;;;;2.60;0.70;;;14.60;65.20;;;;;;2285463;56;21787;-71
2023/03/10 04:20:36;;;;;;;2.75;0.73;;;14.60;65.30;;;;;;2284896;55;21447;-72
2023/03/10 04:23:03;;;;;;;1.90;0.60;;;14.60;64.90;;;;;;2284935;56;21412;-71
2023/03/10 04:25:29;;;;;;;3.85;1.30;;;14.60;65.20;;;;;;2284695;56;20943;-71
2023/03/10 04:27:56;;;;;;;3.10;1.08;;;14.60;65.00;;;;;;2295536;55;21351;-72
2023/03/10 04:30:27;;;;;;;3.90;0.90;;;14.60;65.20;;;;;;2284663;56;20995;-72
2023/03/10 04:32:57;;;;;;;3.25;1.00;;;14.60;65.20;;;;;;2285468;56;21231;-72
2023/03/10 04:35:24;;;;;;;1.95;0.90;;;14.60;65.10;;;;;;2284366;56;20999;-71
2023/03/10 04:37:50;;;;;;;2.75;1.10;;;14.60;65.20;;;;;;2283845;55;21559;-72
2023/03/10 04:40:16;;;;;;;2.28;0.73;;;14.60;65.20;;;;;;2284509;56;21341;-71
2023/03/10 04:42:42;;;;;;;2.78;0.68;;;14.70;65.30;;;;;;2287573;55;21491;-71
2023/03/10 04:45:09;;;;;;;2.72;0.75;;;14.70;65.30;;;;;;2379924;55;20994;-72
2023/03/10 04:47:36;;;;;;;1.95;0.60;;;14.70;65.40;;;;;;2288235;55;20967;-72
2023/03/10 04:50:02;;;;;;;2.67;0.85;;;14.60;65.30;;;;;;2285052;56;21010;-73
2023/03/10 04:52:29;;;;;;;3.00;0.73;;;14.70;65.30;;;;;;2284302;56;21201;-72
2023/03/10 04:54:55;;;;;;;2.10;0.57;;;14.70;65.20;;;;;;2284712;56;21353;-72
2023/03/10 04:57:23;;;;;;;3.42;0.80;;;14.70;65.20;;;;;;2284935;56;20955;-72
2023/03/10 04:59:50;;;;;;;2.00;0.70;;;14.70;65.10;;;;;;2415503;55;20990;-73
2023/03/10 05:02:16;;;;;;;1.27;0.50;;;14.70;65.20;;;;;;2288002;55;20967;-73
2023/03/10 05:04:42;;;;;;;1.48;0.60;;;14.70;65.20;;;;;;2319754;55;20995;-72
2023/03/10 05:07:09;;;;;;;2.20;0.70;;;14.70;65.30;;;;;;2283749;56;20907;-73
2023/03/10 05:09:35;;;;;;;2.50;0.80;;;14.60;65.40;;;;;;2290551;55;21306;-72
2023/03/10 05:12:02;;;;;;;2.92;0.68;;;14.60;65.50;;;;;;2277527;56;21077;-72
2023/03/10 05:14:28;;;;;;;2.28;0.60;;;14.60;65.70;;;;;;2268179;56;21472;-73
2023/03/10 05:16:55;;;;;;;1.48;0.57;;;14.60;65.90;;;;;;2280791;55;20975;-74
2023/03/10 05:19:21;;;;;;;2.87;0.60;;;14.50;65.90;;;;;;2270148;56;21496;-73
2023/03/10 05:21:47;;;;;;;2.58;0.65;;;14.50;66.10;;;;;;2279809;55;20919;-73
2023/03/10 05:24:13;;;;;;;3.00;0.90;;;14.50;66.20;;;;;;2268565;56;21300;-72
2023/03/10 05:26:40;;;;;;;3.12;0.62;;;14.50;66.30;;;;;;2267866;56;21501;-72
2023/03/10 05:29:06;;;;;;;3.40;0.85;;;14.40;66.40;;;;;;2370778;55;20959;-72
2023/03/10 05:31:33;;;;;;;2.35;0.82;;;14.40;66.60;;;;;;2379187;55;20959;-72
2023/03/10 05:33:59;;;;;;;2.85;1.10;;;14.40;66.80;;;;;;2275259;55;22095;-72
2023/03/10 05:36:25;;;;;;;1.95;0.60;;;14.30;66.90;;;;;;2267758;56;21619;-71
2023/03/10 05:38:51;;;;;;;1.55;0.60;;;14.30;67.10;;;;;;2266512;56;22209;-72
2023/03/10 05:41:18;;;;;;;3.05;0.70;;;14.30;67.20;;;;;;2269896;55;21314;-73
2023/03/10 05:43:44;;;;;;;1.77;0.50;;;14.20;67.30;;;;;;2275662;55;20982;-72
2023/03/10 05:46:10;;;;;;;1.62;0.60;;;14.20;67.50;;;;;;2419111;54;21031;-72
2023/03/10 05:48:37;;;;;;;1.70;0.40;;;14.20;67.70;;;;;;2267315;55;20932;-72
2023/03/10 05:51:08;;;;;;;3.25;0.50;;;14.20;67.90;;;;;;2268513;56;20962;-72
2023/03/10 05:53:40;;;;;;;1.65;0.60;;;14.10;67.90;;;;;;2266949;55;21831;-72
2023/03/10 05:56:13;;;;;;;1.00;0.45;;;14.10;68.00;;;;;;2268360;56;20963;-72
2023/03/10 05:58:39;;;;;;;1.55;0.50;;;14.10;68.80;;;;;;2247052;56;21894;-72
2023/03/10 06:01:05;;;;;;;1.62;0.60;;;14.10;68.40;;;;;;2265571;55;22102;-71
2023/03/10 06:03:32;;;;;;;1.27;0.57;;;14.10;68.50;;;;;;2268008;56;21455;-72
2023/03/10 06:05:58;;;;;;;1.58;0.47;;;14.10;68.60;;;;;;2267454;56;21006;-73
2023/03/10 06:08:26;;;;;;;1.48;0.47;;;14.10;68.70;;;;;;2267356;56;21480;-72
2023/03/10 06:10:53;;;;;;;2.53;0.70;;;14.00;68.80;;;;;;2267262;56;21436;-72
2023/03/10 06:13:19;;;;;;;2.72;0.68;;;14.00;68.80;;;;;;2268099;56;21002;-72
2023/03/10 06:15:52;;;;;;;2.20;0.50;;;14.00;68.90;;;;;;2267387;56;21041;-72
2023/03/10 06:18:19;;;;;;;1.60;0.40;;;14.00;68.70;;;;;;2267444;56;21510;-73
2023/03/10 06:20:46;;;;;;;3.12;0.77;;;14.00;68.90;;;;;;2294842;55;20923;-72
2023/03/10 06:23:16;;;;;;;1.80;0.68;;;14.00;68.90;;;;;;2268168;56;21437;-72
2023/03/10 06:25:42;;;;;;;2.40;0.80;;;14.00;69.00;;;;;;2369548;55;21277;-72
2023/03/10 06:28:09;;;;;;;2.67;0.80;;;14.00;69.00;;;;;;2267428;56;21366;-71
2023/03/10 06:30:35;;;;;;;2.37;0.85;;;14.00;69.10;;;;;;2476712;55;20907;-72
2023/03/10 06:33:01;;;;;;;1.95;0.60;;;14.00;69.10;;;;;;2268346;55;21695;-73
2023/03/10 06:35:28;;;;;;;2.05;0.60;;;14.00;69.20;;;;;;2411406;54;21265;-73
2023/03/10 06:37:54;;;;;;;2.85;0.80;;;14.10;69.20;;;;;;2298426;55;21340;-73
2023/03/10 06:40:20;;;;;;;3.15;0.50;;;14.00;69.10;;;;;;2405518;54;20975;-72
2023/03/10 06:42:47;;;;;;;2.70;0.90;;;14.00;69.00;;;;;;2267698;56;21331;-73
2023/03/10 06:45:14;;;;;;;3.70;0.70;;;14.00;68.70;;;;;;2321827;54;20934;-71
2023/03/10 06:47:41;;;;;;;2.53;1.00;;;14.00;68.40;;;;;;2267574;56;21505;-72
2023/03/10 06:50:08;;;;;;;3.30;1.10;;;13.90;68.10;;;;;;2267681;55;22008;-73
2023/03/10 06:52:35;;;;;;;3.12;1.20;;;13.90;67.90;;;;;;2268277;56;20974;-73
2023/03/10 06:55:01;;;;;;;2.17;1.00;;;13.80;67.70;;;;;;2343346;54;20959;-71
2023/03/10 06:57:27;;;;;;;1.58;0.60;;;13.80;67.80;;;;;;2268710;55;20977;-71
2023/03/10 06:59:54;;;;;;;1.77;0.52;;;13.80;68.00;;;;;;2499833;54;21371;-72
2023/03/10 07:02:20;;;;;;;1.52;0.60;;;13.70;68.10;;;;;;2267856;55;21006;-71
2023/03/10 07:04:46;;;;;;;2.12;0.50;;;13.60;68.30;;;;;;2267671;55;21074;-74
2023/03/10 07:07:13;;;;;;;1.25;0.50;;;13.60;68.50;;;;;;2288961;55;20947;-73
2023/03/10 07:09:39;;;;;;;2.05;0.50;;;13.60;68.70;;;;;;2281044;54;21918;-74
2023/03/10 07:12:06;;;;;;;1.35;0.50;;;13.50;68.90;;;;;;2267616;56;21699;-73
2023/03/10 07:14:32;;;;;;;2.33;0.70;;;13.50;69.10;;;;;;2267416;56;21388;-73
2023/03/10 07:16:58;;;;;;;2.67;0.73;;;13.50;69.20;;;;;;2295122;55;22138;-73
2023/03/10 07:19:25;;;;;;;2.55;0.62;;;13.50;69.30;;;;;;2272448;56;21419;-73
2023/03/10 07:21:51;;;;;;;3.22;0.70;;;13.50;69.50;;;;;;2276468;56;20954;-73
2023/03/10 07:24:18;;;;;;;2.08;0.50;;;13.40;69.40;;;;;;2276975;55;21451;-73
2023/03/10 07:26:44;;;;;;;2.72;0.88;;;13.40;69.60;;;;;;2277374;55;20958;-74
2023/03/10 07:29:11;;;;;;;2.45;0.80;;;13.40;69.70;;;;;;2498757;54;21454;-73
2023/03/10 07:31:37;;;;;;;4.07;1.12;;;13.40;69.80;;;;;;2440260;54;20993;-73
2023/03/10 07:34:03;;;;;;;3.22;0.90;;;13.40;69.90;;;;;;2276593;55;21584;-72
2023/03/10 07:36:30;;;;;;;3.10;0.80;;;13.40;70.10;;;;;;2277135;56;21530;-73
2023/03/10 07:38:56;;;;;;;1.25;0.65;;;13.40;70.10;;;;;;2365475;54;21594;-72
2023/03/10 07:41:22;;;;;;;1.33;0.50;;;13.40;70.20;;;;;;2285936;55;21534;-73
2023/03/10 07:43:51;;;;;;;2.00;0.50;;;13.40;70.40;;;;;;2276695;55;20982;-73
2023/03/10 07:46:17;;;;;;;2.97;0.60;;;13.40;70.50;;;;;;2422766;53;21615;-73
2023/03/10 07:48:43;;;;;;;2.17;0.60;;;13.40;70.50;;;;;;2275236;55;20931;-72
2023/03/10 07:51:11;;;;;;;1.25;0.40;;;13.50;70.50;;;;;;2276845;56;21552;-73
2023/03/10 07:53:37;;;;;;;2.45;0.50;;;13.50;70.50;;;;;;2276808;55;21109;-73
2023/03/10 07:56:05;;;;;;;1.83;0.50;;;13.50;70.60;;;;;;2287112;55;21101;-73
2023/03/10 07:58:31;;;;;;;1.48;0.40;;;13.50;70.50;;;;;;2277163;55;21223;-72
2023/03/10 08:00:57;;;;;;;1.05;0.28;;;13.50;70.50;;;;;;2276855;55;20970;-73
2023/03/10 08:03:24;;;;;;;1.77;0.50;;;13.50;70.40;;;;;;2331028;54;21369;-73
2023/03/10 08:05:50;;;;;;;4.62;1.75;;;13.50;70.40;;;;;;2316518;55;21198;-72
2023/03/10 08:08:17;;;;;;;5.62;1.70;;;13.50;70.40;;;;;;2276888;56;20992;-73
2023/03/10 08:10:43;;;;;;;4.75;1.40;;;13.50;70.40;;;;;;2303910;55;21916;-73
2023/03/10 08:13:09;;;;;;;4.35;1.50;;;13.60;70.50;;;;;;2343467;55;21122;-73
2023/03/10 08:15:37;;;;;;;6.10;1.75;;;13.50;70.40;;;;;;2276557;56;20927;-73
2023/03/10 08:18:06;;;;;;;12.70;5.20;;;13.60;70.50;;;;;;2351900;54;21471;-73
2023/03/10 08:20:33;;;;;;;16.20;6.93;;;13.60;70.50;;;;;;2277303;56;21392;-72
2023/03/10 08:22:59;;;;;;;17.73;7.25;;;13.60;70.50;;;;;;2277116;56;20950;-73
2023/03/10 08:25:25;;;;;;;9.63;4.95;;;13.60;71.20;;;;;;2304119;55;20946;-72
2023/03/10 08:27:52;;;;;;;7.30;3.55;;;13.60;70.40;;;;;;2276892;55;21506;-73
2023/03/10 08:30:18;;;;;;;5.10;3.17;;;13.60;70.30;;;;;;2290251;54;20975;-74
2023/03/10 08:32:44;;;;;;;3.58;1.70;;;13.60;71.10;;;;;;2277405;56;21410;-73
2023/03/10 08:35:11;;;;;;;4.12;1.60;;;13.60;70.40;;;;;;2498710;54;20982;-73
2023/03/10 08:37:37;;;;;;;3.70;2.08;;;13.60;70.50;;;;;;2277353;55;21751;-73
2023/03/10 08:40:06;;;;;;;6.82;2.22;;;13.70;70.60;;;;;;2277236;56;21412;-73
2023/03/10 08:42:35;;;;;;;3.83;1.17;;;13.70;70.50;;;;;;2278043;56;21496;-73
2023/03/10 08:45:02;;;;;;;2.83;0.98;;;13.70;70.40;;;;;;2277408;56;21002;-73
2023/03/10 08:47:28;;;;;;;4.40;1.12;;;13.70;70.20;;;;;;2320058;54;21078;-73
2023/03/10 08:49:57;;;;;;;5.87;1.17;;;13.70;70.20;;;;;;2277223;55;21516;-73
2023/03/10 08:52:24;;;;;;;3.90;0.95;;;13.70;70.20;;;;;;2372041;54;21441;-74
2023/03/10 08:54:50;;;;;;;3.10;0.80;;;13.70;70.20;;;;;;2464438;54;21053;-73
2023/03/10 08:57:16;;;;;;;3.35;0.90;;;13.70;70.30;;;;;;2277251;56;20990;-74
2023/03/10 08:59:42;;;;;;;6.00;1.23;;;13.70;70.30;;;;;;2283329;55;21317;-73
2023/03/10 09:02:10;;;;;;;2.90;0.80;;;13.70;70.30;;;;;;2369557;54;21484;-73
2023/03/10 09:04:37;;;;;;;4.53;0.70;;;13.70;70.20;;;;;;2277295;55;20946;-73
2023/03/10 09:07:03;;;;;;;2.90;0.88;;;13.70;70.30;;;;;;2276738;56;20945;-74
2023/03/10 09:09:29;;;;;;;4.00;0.98;;;13.70;70.30;;;;;;2276854;56;21584;-73
2023/03/10 09:11:55;;;;;;;4.93;0.90;;;13.70;70.40;;;;;;2330132;54;21006;-73
2023/03/10 09:14:22;;;;;;;4.03;0.95;;;13.70;70.40;;;;;;2277186;56;21330;-74
2023/03/10 09:16:48;;;;;;;6.03;1.52;;;13.70;70.20;;;;;;2276792;55;21447;-74
2023/03/10 09:19:14;;;;;;;6.05;0.98;;;13.70;70.20;;;;;;2277160;56;21469;-73
2023/03/10 09:21:41;;;;;;;5.43;1.10;;;13.70;70.20;;;;;;2277378;55;20986;-74
2023/03/10 09:24:08;;;;;;;6.03;1.33;;;13.70;70.10;;;;;;2330032;54;21133;-74
2023/03/10 09:26:34;;;;;;;3.87;0.90;;;13.70;70.20;;;;;;2277242;56;20942;-74
2023/03/10 09:29:00;;;;;;;3.28;0.98;;;13.70;70.10;;;;;;2293666;55;21469;-73
2023/03/10 09:31:31;;;;;;;5.57;1.75;;;13.70;70.10;;;;;;2320826;54;20935;-73
2023/03/10 09:33:57;;;;;;;5.68;1.50;;;13.70;69.90;;;;;;2271658;56;20931;-74
2023/03/10 09:36:24;;;;;;;4.82;1.65;;;13.70;70.10;;;;;;2276396;56;21401;-74
2023/03/10 09:38:51;;;;;;;6.18;1.70;;;13.70;70.10;;;;;;2290944;55;20963;-74
2023/03/10 09:42:42;;;;;;;3.75;1.20;;;13.70;70.00;;;;;;2276787;56;20935;-73
2023/03/10 09:45:22;;;;;;;7.32;1.10;;;13.70;68.90;;;;;;2352062;54;20970;-74
2023/03/10 09:48:25;;;;;;;5.53;1.48;;;13.70;69.60;;;;;;2276867;55;21484;-74
2023/03/10 09:50:53;;;;;;;4.78;1.10;;;13.70;69.50;;;;;;2329972;55;21614;-74
2023/03/10 09:53:45;;;;;;;5.47;1.27;;;13.70;70.10;;;;;;2276595;56;21450;-74
2023/03/10 09:56:21;;;;;;;5.45;1.00;;;13.70;69.80;;;;;;2377811;55;20975;-74
2023/03/10 09:58:53;;;;;;;5.28;1.00;;;13.70;70.00;;;;;;2276355;56;20954;-74
2023/03/10 10:01:24;;;;;;;4.93;1.23;;;13.70;70.10;;;;;;2351801;55;1281706;-74
2023/03/10 10:03:55;;;;;;;6.22;1.52;;;13.70;69.90;;;;;;2276363;56;20943;-73
2023/03/10 10:06:24;;;;;;;5.28;1.42;;;13.70;69.90;;;;;;2277337;56;21351;-74
2023/03/10 10:09:05;;;;;;;3.12;0.90;;;13.70;69.90;;;;;;2281539;55;21492;-73
2023/03/10 10:11:33;;;;;;;5.82;1.35;;;13.70;69.90;;;;;;2276681;56;20923;-73
2023/03/10 10:14:24;;;;;;;7.45;1.12;;;13.70;69.90;;;;;;2496902;55;20935;-73
2023/03/10 10:20:48;;;;;;;4.60;0.95;;;13.70;69.40;;;;;;2277476;55;20994;-73
2023/03/10 10:23:20;;;;;;;3.78;0.90;;;13.70;69.00;;;;;;2296390;54;20964;-73
2023/03/10 10:25:47;;;;;;;4.85;0.93;;;13.70;69.40;;;;;;2276580;56;21465;-73
2023/03/10 10:28:30;;;;;;;3.90;1.05;;;13.70;69.60;;;;;;2509805;54;21621;-73
2023/03/10 10:31:09;;;;;;;2.60;0.62;;;13.70;69.60;;;;;;2276717;55;20958;-73
2023/03/10 10:33:58;;;;;;;6.28;0.80;;;13.70;69.30;;;;;;2509535;54;21322;-73
2023/03/10 10:36:36;;;;;;;3.83;0.70;;;13.70;68.90;;;;;;2377220;54;20946;-73
2023/03/10 10:39:04;;;;;;;2.90;0.82;;;13.70;69.20;;;;;;2318377;53;20951;-73
2023/03/10 10:41:32;;;;;;;5.45;1.17;;;13.70;69.40;;;;;;2277375;55;21015;-74
2023/03/10 10:44:12;;;;;;;3.35;0.62;;;13.70;69.40;;;;;;2276677;56;21006;-73
2023/03/10 10:46:54;;;;;;;5.40;1.00;;;13.70;69.20;;;;;;2337080;55;21003;-73
2023/03/10 10:49:27;;;;;;;3.97;0.93;;;13.70;69.10;;;;;;2385590;55;20966;-74
2023/03/10 10:52:04;;;;;;;2.97;0.60;;;13.70;69.40;;;;;;2276574;56;21277;-73
2023/03/10 10:54:57;;;;;;;3.92;0.77;;;13.70;69.40;;;;;;2276753;56;22004;-74
2023/03/10 10:57:31;;;;;;;2.87;0.60;;;13.70;69.10;;;;;;2333797;55;20923;-73
2023/03/10 11:00:28;;;;;;;3.50;0.70;;;13.70;69.50;;;;;;2276406;56;20899;-73
2023/03/10 11:02:54;;;;;;;2.03;0.60;;;13.60;69.00;;;;;;2276482;55;20946;-73
2023/03/10 11:05:32;;;;;;;2.80;0.73;;;13.60;69.90;;;;;;2277090;55;21021;-73
2023/03/10 11:08:34;;;;;;;2.95;0.80;;;13.70;70.00;;;;;;2276500;55;21360;-73
2023/03/10 11:11:32;;;;;;;3.55;1.20;;;13.60;69.40;;;;;;2276576;54;20959;-74
2023/03/10 11:14:36;;;;;;;3.90;1.20;;;13.70;69.40;;;;;;2276780;56;21240;-73
2023/03/10 11:19:00;;;;;;;3.33;1.02;;;13.70;69.40;;;;;;2301510;55;21419;-73
2023/03/10 11:21:27;;;;;;;3.53;0.90;;;13.70;70.00;;;;;;2404016;54;21092;-73
2023/03/10 11:24:44;;;;;;;2.15;0.57;;;13.60;70.10;;;;;;2298407;56;21391;-73
2023/03/10 11:27:41;;;;;;;2.80;0.70;;;13.70;69.20;;;;;;2298514;55;20953;-73
2023/03/10 11:30:31;;;;;;;4.05;0.60;;;13.70;69.50;;;;;;2298381;56;21605;-73
2023/03/10 11:34:29;;;;;;;0.93;0.40;;;13.70;69.70;;;;;;2298557;55;20992;-73
2023/03/10 11:37:43;;;;;;;2.30;0.52;;;13.70;68.80;;;;;;2298225;55;20925;-73
2023/03/10 11:41:32;;;;;;;2.92;0.70;;;13.70;68.90;;;;;;2313665;53;21455;-73
2023/03/10 11:44:20;;;;;;;1.25;0.45;;;13.70;68.90;;;;;;2351915;54;20945;-73
2023/03/10 11:47:10;;;;;;;2.62;0.52;;;13.70;70.20;;;;;;2299279;56;21036;-74
2023/03/10 11:49:39;;;;;;;1.30;0.47;;;13.70;69.50;;;;;;2376479;54;21240;-74
2023/03/10 11:52:13;;;;;;;1.85;0.60;;;13.70;70.20;;;;;;2276593;55;21841;-73
2023/03/10 11:54:52;;;;;;;2.75;0.50;;;13.70;70.00;;;;;;2278158;56;21055;-73
2023/03/10 11:57:19;;;;;;;1.98;0.55;;;13.70;69.80;;;;;;2277383;55;21082;-74
2023/03/10 11:59:57;;;;;;;1.65;0.40;;;13.70;70.20;;;;;;2276518;55;20970;-74
2023/03/10 12:02:30;;;;;;;1.62;0.50;;;13.70;70.00;;;;;;2281296;56;20978;-74
2023/03/10 12:05:09;;;;;;;2.05;0.60;;;13.70;70.00;;;;;;2323586;54;20946;-74
2023/03/10 12:07:43;;;;;;;1.37;0.40;;;13.70;70.00;;;;;;2297760;55;22022;-75
2023/03/10 12:10:16;;;;;;;1.17;0.50;;;13.70;69.80;;;;;;2277337;56;20962;-74
2023/03/10 12:12:47;;;;;;;2.20;0.70;;;13.60;69.80;;;;;;2293210;55;20934;-74
2023/03/10 12:15:38;;;;;;;0.70;0.40;;;13.60;70.00;;;;;;2283591;55;20986;-74
2023/03/10 12:18:05;;;;;;;0.98;0.45;;;13.60;69.50;;;;;;2277627;56;20971;-74
2023/03/10 12:20:32;;;;;;;1.05;0.30;;;13.50;69.80;;;;;;2282493;55;20997;-74
2023/03/10 12:23:36;;;;;;;2.87;1.23;;;13.60;70.10;;;;;;2292701;55;21039;-74
2023/03/10 12:26:04;;;;;;;2.80;1.20;;;13.50;70.00;;;;;;2277911;56;20979;-74
2023/03/10 12:28:32;;;;;;;2.20;0.95;;;13.50;70.00;;;;;;2277311;55;20987;-74
2023/03/10 12:31:35;;;;;;;3.40;1.02;;;13.50;70.10;;;;;;2276792;56;21479;-73
2023/03/10 12:34:13;;;;;;;1.75;0.70;;;13.50;69.80;;;;;;2276903;56;21029;-73
2023/03/10 12:36:40;;;;;;;2.35;0.50;;;13.50;70.00;;;;;;2279627;55;20997;-73
2023/03/10 12:40:46;;;;;;;2.35;0.65;;;13.50;70.40;;;;;;2302162;55;21480;-74
2023/03/10 12:47:02;;;;;;;2.25;0.60;;;13.50;69.50;;;;;;2282072;55;21325;-75
2023/03/10 12:52:14;;;;;;;1.98;0.50;;;13.40;69.80;;;;;;2344046;55;20969;-74
2023/03/10 12:58:17;;;;;;;1.67;0.50;;;13.40;69.90;;;;;;2281397;55;21058;-73
2023/03/10 13:01:00;;;;;;;0.90;0.40;;;13.40;70.50;;;;;;2276518;56;21362;-74
2023/03/10 13:03:40;;;;;;;1.02;0.30;;;13.40;70.30;;;;;;2277072;56;20978;-73
2023/03/10 13:06:49;;;;;;;1.80;0.68;;;13.30;70.60;;;;;;2277060;56;21417;-74
2023/03/10 13:09:30;;;;;;;1.80;0.60;;;13.40;70.10;;;;;;2278511;56;21314;-74
2023/03/10 13:12:18;;;;;;;2.30;0.35;;;13.30;70.70;;;;;;2276461;56;21864;-74
2023/03/10 13:14:45;;;;;;;2.17;0.50;;;13.30;71.10;;;;;;2355036;55;21486;-73
2023/03/10 13:17:28;;;;;;;2.30;0.75;;;13.30;71.20;;;;;;2332490;55;21506;-73
2023/03/10 13:20:05;;;;;;;1.65;0.60;;;13.40;71.10;;;;;;2303988;55;21538;-74
2023/03/10 13:22:32;;;;;;;2.42;0.50;;;13.30;71.20;;;;;;2304551;54;21551;-74
2023/03/10 13:25:00;;;;;;;1.37;0.50;;;13.40;71.50;;;;;;2276876;56;20975;-74
2023/03/10 13:27:29;;;;;;;1.45;0.50;;;13.40;71.50;;;;;;2276556;56;21000;-74